createdAt,value
2022-12-25T00:00:57.185Z,6.53
2022-12-25T00:02:30.233Z,6.59
2022-12-25T00:04:01.966Z,6.61
2022-12-25T00:05:33.596Z,6.64
2022-12-25T00:07:05.576Z,6.67
2022-12-25T00:08:37.406Z,6.63
2022-12-25T00:10:09.882Z,6.61
2022-12-25T00:11:43.049Z,6.61
2022-12-25T00:13:14.672Z,6.57
2022-12-25T00:14:46.737Z,6.57
2022-12-25T00:16:19.508Z,6.49
2022-12-25T00:17:51.162Z,6.47
2022-12-25T00:19:22.801Z,6.48
2022-12-25T00:21:01.108Z,6.51
2022-12-25T00:22:32.701Z,6.54
2022-12-25T00:24:04.608Z,6.56
2022-12-25T00:25:39.339Z,6.57
2022-12-25T00:27:10.976Z,6.62
2022-12-25T00:28:42.811Z,6.64
2022-12-25T00:30:14.576Z,6.68
2022-12-25T00:31:46.293Z,6.67
2022-12-25T00:33:18.162Z,6.71
2022-12-25T00:34:49.943Z,6.73
2022-12-25T00:36:21.967Z,6.67
2022-12-25T00:37:53.529Z,6.57
2022-12-25T00:39:25.202Z,6.47
2022-12-25T00:40:56.766Z,6.38
2022-12-25T00:42:29.166Z,6.31
2022-12-25T00:44:00.805Z,6.30
2022-12-25T00:45:32.532Z,6.36
2022-12-25T00:47:04.392Z,6.47
2022-12-25T00:48:36.100Z,6.54
2022-12-25T00:50:08.156Z,6.65
2022-12-25T00:51:39.903Z,6.67
2022-12-25T00:53:11.491Z,6.62
2022-12-25T00:54:43.088Z,6.55
2022-12-25T00:56:14.671Z,6.47
2022-12-25T00:57:46.231Z,6.43
2022-12-25T00:59:18.061Z,6.40
2022-12-25T01:00:49.996Z,6.43
2022-12-25T01:02:24.805Z,6.46
2022-12-25T01:03:56.749Z,6.47
2022-12-25T01:05:28.437Z,6.44
2022-12-25T01:06:59.998Z,6.45
2022-12-25T01:08:32.342Z,6.49
2022-12-25T01:10:22.772Z,6.52
2022-12-25T01:11:54.482Z,6.52
2022-12-25T01:13:26.173Z,6.56
2022-12-25T01:14:57.814Z,6.54
2022-12-25T01:16:29.548Z,6.55
2022-12-25T01:18:05.770Z,6.57
2022-12-25T01:19:39.358Z,6.61
2022-12-25T01:21:11.321Z,6.62
2022-12-25T01:22:43.174Z,6.64
2022-12-25T01:24:14.734Z,6.65
2022-12-25T01:25:46.407Z,6.68
2022-12-25T01:27:17.982Z,6.74
2022-12-25T01:28:49.740Z,6.77
2022-12-25T01:30:21.284Z,6.80
2022-12-25T01:31:52.870Z,6.86
2022-12-25T01:33:24.417Z,6.91
2022-12-25T01:34:56.550Z,6.99
2022-12-25T01:36:28.227Z,7.04
2022-12-25T01:37:59.884Z,7.08
2022-12-25T01:39:31.959Z,7.10
2022-12-25T01:41:03.568Z,7.13
2022-12-25T01:42:35.208Z,7.18
2022-12-25T01:44:08.169Z,7.21
2022-12-25T01:45:42.648Z,7.22
2022-12-25T01:47:14.249Z,7.22
2022-12-25T01:48:46.010Z,7.27
2022-12-25T01:50:17.699Z,7.33
2022-12-25T01:51:53.340Z,7.37
2022-12-25T01:53:24.928Z,7.41
2022-12-25T01:54:57.568Z,7.43
2022-12-25T01:56:29.177Z,7.45
2022-12-25T01:58:00.807Z,7.46
2022-12-25T01:59:32.427Z,7.45
2022-12-25T02:01:04.040Z,7.43
2022-12-25T02:02:35.822Z,7.43
2022-12-25T02:04:38.953Z,7.45
2022-12-25T02:06:10.732Z,7.45
2022-12-25T02:07:42.287Z,7.47
2022-12-25T02:09:13.966Z,7.47
2022-12-25T02:10:45.588Z,7.47
2022-12-25T02:12:24.434Z,7.47
2022-12-25T02:13:55.973Z,7.44
2022-12-25T02:15:29.568Z,7.41
2022-12-25T02:17:21.516Z,7.39
2022-12-25T02:18:54.130Z,7.40
2022-12-25T02:20:31.567Z,7.39
2022-12-25T02:22:09.336Z,7.40
2022-12-25T02:23:53.229Z,7.40
2022-12-25T02:25:51.256Z,7.37
2022-12-25T02:27:41.617Z,7.38
2022-12-25T02:29:17.500Z,7.41
2022-12-25T02:30:54.111Z,7.38
2022-12-25T02:32:33.999Z,7.36
2022-12-25T02:34:08.897Z,7.38
2022-12-25T02:35:41.051Z,7.39
2022-12-25T02:37:12.601Z,7.39
2022-12-25T02:39:04.248Z,7.41
2022-12-25T02:40:41.286Z,7.41
2022-12-25T02:42:15.043Z,7.39
2022-12-25T02:44:05.308Z,7.39
2022-12-25T02:46:10.528Z,7.40
2022-12-25T02:48:00.580Z,7.37
2022-12-25T02:49:50.607Z,7.35
2022-12-25T02:51:41.990Z,7.36
2022-12-25T02:53:32.373Z,7.34
2022-12-25T02:55:24.288Z,7.35
2022-12-25T02:57:14.578Z,7.33
2022-12-25T02:59:04.657Z,7.33
2022-12-25T03:00:56.526Z,7.32
2022-12-25T03:02:46.855Z,7.31
2022-12-25T03:04:37.273Z,7.27
2022-12-25T03:06:27.063Z,7.24
2022-12-25T03:07:58.924Z,7.24
2022-12-25T03:09:50.611Z,7.23
2022-12-25T03:11:40.197Z,7.23
2022-12-25T03:13:16.589Z,7.23
2022-12-25T03:15:06.900Z,7.22
2022-12-25T03:16:50.676Z,7.26
2022-12-25T03:18:24.537Z,7.26
2022-12-25T03:20:15.101Z,7.25
2022-12-25T03:22:05.345Z,7.25
2022-12-25T03:23:56.323Z,7.23
2022-12-25T03:25:46.324Z,7.24
2022-12-25T03:27:18.044Z,7.23
2022-12-25T03:28:49.555Z,7.24
2022-12-25T03:30:40.513Z,7.24
2022-12-25T03:32:18.587Z,7.19
2022-12-25T03:34:23.512Z,7.18
2022-12-25T03:36:04.803Z,7.21
2022-12-25T03:37:45.609Z,7.21
2022-12-25T03:39:40.587Z,7.21
2022-12-25T03:41:52.692Z,7.22
2022-12-25T03:43:32.889Z,7.22
2022-12-25T03:45:06.577Z,7.21
2022-12-25T03:47:11.996Z,7.23
2022-12-25T03:49:02.281Z,7.26
2022-12-25T03:50:59.858Z,7.23
2022-12-25T03:52:50.349Z,7.20
2022-12-25T03:54:41.741Z,7.15
2022-12-25T03:56:31.832Z,7.02
2022-12-25T03:58:22.070Z,6.93
2022-12-25T04:00:12.231Z,6.92
2022-12-25T04:02:02.582Z,6.87
2022-12-25T04:03:53.055Z,6.88
2022-12-25T04:05:43.073Z,6.81
2022-12-25T04:07:33.061Z,6.69
2022-12-25T04:09:23.021Z,6.66
2022-12-25T04:11:12.903Z,6.63
2022-12-25T04:13:03.343Z,6.65
2022-12-25T04:14:53.686Z,6.68
2022-12-25T04:16:43.703Z,6.67
2022-12-25T04:18:33.979Z,6.71
2022-12-25T04:20:24.422Z,6.74
2022-12-25T04:22:14.428Z,6.72
2022-12-25T04:24:04.217Z,6.72
2022-12-25T04:25:54.356Z,6.72
2022-12-25T04:27:44.258Z,6.62
2022-12-25T04:29:34.176Z,6.46
2022-12-25T04:31:24.124Z,6.48
2022-12-25T04:33:17.212Z,6.50
2022-12-25T04:35:07.489Z,6.51
2022-12-25T04:36:39.151Z,6.41
2022-12-25T04:38:10.728Z,6.33
2022-12-25T04:39:42.447Z,6.35
2022-12-25T04:41:14.658Z,6.32
2022-12-25T04:42:46.307Z,6.29
2022-12-25T04:44:18.056Z,6.22
2022-12-25T04:45:53.891Z,6.17
2022-12-25T04:47:25.716Z,6.15
2022-12-25T04:48:57.440Z,6.10
2022-12-25T04:50:29.106Z,6.05
2022-12-25T04:52:00.958Z,6.05
2022-12-25T04:53:32.579Z,6.04
2022-12-25T04:55:04.605Z,6.02
2022-12-25T04:56:41.595Z,5.99
2022-12-25T04:58:17.087Z,5.91
2022-12-25T04:59:48.611Z,5.90
2022-12-25T05:01:20.293Z,5.84
2022-12-25T05:02:52.226Z,5.79
2022-12-25T05:04:24.144Z,5.73
2022-12-25T05:05:56.242Z,5.70
2022-12-25T05:07:27.881Z,5.72
2022-12-25T05:08:59.502Z,5.79
2022-12-25T05:10:31.051Z,5.81
2022-12-25T05:12:02.573Z,5.80
2022-12-25T05:13:34.408Z,5.81
2022-12-25T05:15:06.096Z,5.77
2022-12-25T05:16:37.813Z,5.70
2022-12-25T05:18:09.513Z,5.63
2022-12-25T05:19:41.269Z,5.58
2022-12-25T05:21:12.922Z,5.52
2022-12-25T05:22:44.616Z,5.46
2022-12-25T05:24:16.223Z,5.42
2022-12-25T05:25:47.910Z,5.39
2022-12-25T05:27:19.398Z,5.34
2022-12-25T05:28:51.133Z,5.28
2022-12-25T05:30:22.745Z,5.19
2022-12-25T05:31:54.386Z,5.13
2022-12-25T05:33:26.197Z,5.09
2022-12-25T05:35:00.155Z,5.03
2022-12-25T05:36:31.772Z,5.01
2022-12-25T05:38:03.369Z,4.97
2022-12-25T05:39:37.515Z,4.95
2022-12-25T05:41:09.339Z,4.93
2022-12-25T05:42:40.856Z,4.88
2022-12-25T05:44:12.466Z,4.85
2022-12-25T05:45:45.418Z,4.86
2022-12-25T05:47:17.046Z,4.87
2022-12-25T05:48:48.758Z,4.84
2022-12-25T05:50:20.551Z,4.82
2022-12-25T05:51:52.532Z,4.78
2022-12-25T05:53:24.286Z,4.78
2022-12-25T05:54:55.863Z,4.82
2022-12-25T05:56:27.635Z,4.82
2022-12-25T05:57:59.516Z,4.82
2022-12-25T05:59:31.535Z,4.80
2022-12-25T06:01:03.323Z,4.75
2022-12-25T06:02:35.756Z,4.68
2022-12-25T06:04:12.423Z,4.60
2022-12-25T06:05:44.761Z,4.57
2022-12-25T06:07:16.380Z,4.55
2022-12-25T06:08:48.031Z,4.54
2022-12-25T06:10:19.703Z,4.54
2022-12-25T06:11:51.380Z,4.53
2022-12-25T06:13:23.023Z,4.54
2022-12-25T06:14:54.679Z,4.47
2022-12-25T06:16:26.337Z,4.49
2022-12-25T06:17:59.924Z,4.51
2022-12-25T06:19:31.605Z,4.51
2022-12-25T06:21:06.797Z,4.56
2022-12-25T06:22:38.421Z,4.64
2022-12-25T06:24:13.365Z,4.75
2022-12-25T06:25:47.922Z,4.87
2022-12-25T06:27:19.662Z,4.99
2022-12-25T06:28:51.403Z,5.13
2022-12-25T06:30:22.925Z,5.22
2022-12-25T06:31:57.460Z,5.29
2022-12-25T06:33:29.307Z,5.36
2022-12-25T06:35:00.836Z,5.39
2022-12-25T06:36:32.464Z,5.42
2022-12-25T06:38:03.971Z,5.43
2022-12-25T06:39:35.629Z,5.46
2022-12-25T06:41:16.734Z,5.52
2022-12-25T06:42:48.321Z,5.47
2022-12-25T06:44:19.884Z,5.50
2022-12-25T06:45:53.266Z,5.61
2022-12-25T06:47:24.985Z,5.76
2022-12-25T06:48:57.244Z,5.88
2022-12-25T06:50:28.761Z,6.01
2022-12-25T06:52:01.056Z,6.12
2022-12-25T06:53:39.806Z,6.25
2022-12-25T06:55:12.316Z,6.37
2022-12-25T06:56:43.995Z,6.51
2022-12-25T06:58:15.630Z,6.64
2022-12-25T06:59:52.994Z,6.81
2022-12-25T07:01:26.625Z,6.97
2022-12-25T07:02:58.273Z,7.11
2022-12-25T07:04:33.146Z,7.27
2022-12-25T07:06:05.017Z,7.46
2022-12-25T07:07:36.756Z,7.62
2022-12-25T07:09:08.517Z,7.76
2022-12-25T07:10:50.804Z,7.85
2022-12-25T07:12:28.581Z,7.87
2022-12-25T07:14:02.489Z,7.80
2022-12-25T07:15:45.807Z,7.68
2022-12-25T07:17:17.638Z,7.61
2022-12-25T07:18:49.290Z,7.60
2022-12-25T07:20:20.985Z,7.60
2022-12-25T07:21:52.581Z,7.63
2022-12-25T07:23:24.311Z,7.70
2022-12-25T07:24:56.113Z,7.73
2022-12-25T07:26:27.739Z,7.83
2022-12-25T07:27:59.598Z,7.91
2022-12-25T07:29:31.527Z,7.94
2022-12-25T07:31:07.435Z,7.97
2022-12-25T07:32:39.195Z,8.07
2022-12-25T07:34:11.169Z,8.17
2022-12-25T07:35:43.076Z,8.31
2022-12-25T07:37:14.995Z,8.47
2022-12-25T07:38:49.795Z,8.68
2022-12-25T07:40:21.407Z,8.71
2022-12-25T07:41:53.055Z,8.76
2022-12-25T07:43:25.976Z,8.79
2022-12-25T07:44:57.679Z,8.91
2022-12-25T07:46:29.374Z,9.01
2022-12-25T07:48:05.156Z,8.94
2022-12-25T07:49:37.487Z,8.87
2022-12-25T07:51:10.604Z,8.90
2022-12-25T07:52:43.870Z,8.91
2022-12-25T07:54:15.826Z,8.86
2022-12-25T07:55:47.369Z,8.76
2022-12-25T07:57:18.927Z,8.69
2022-12-25T07:58:50.676Z,8.61
2022-12-25T08:00:22.618Z,8.64
2022-12-25T08:01:54.394Z,8.68
2022-12-25T08:03:26.393Z,8.62
2022-12-25T08:04:58.187Z,8.61
2022-12-25T08:06:30.878Z,8.70
2022-12-25T08:08:02.530Z,8.76
2022-12-25T08:09:34.387Z,8.72
2022-12-25T08:11:07.642Z,8.74
2022-12-25T08:12:39.519Z,8.67
2022-12-25T08:14:11.216Z,8.65
2022-12-25T08:15:43.079Z,8.64
2022-12-25T08:17:15.280Z,8.68
2022-12-25T08:18:47.589Z,8.72
2022-12-25T08:20:20.491Z,8.83
2022-12-25T08:21:52.204Z,9.00
2022-12-25T08:23:23.867Z,9.24
2022-12-25T08:24:55.464Z,9.37
2022-12-25T08:26:26.979Z,9.42
2022-12-25T08:27:59.703Z,9.56
2022-12-25T08:29:31.328Z,9.69
2022-12-25T08:31:06.895Z,9.69
2022-12-25T08:32:38.707Z,9.58
2022-12-25T08:34:10.408Z,9.44
2022-12-25T08:35:42.722Z,9.35
2022-12-25T08:37:14.572Z,9.33
2022-12-25T08:38:46.128Z,9.27
2022-12-25T08:40:18.337Z,9.21
2022-12-25T08:41:50.612Z,9.20
2022-12-25T08:43:22.481Z,9.30
2022-12-25T08:44:54.139Z,9.40
2022-12-25T08:46:26.085Z,9.35
2022-12-25T08:47:59.319Z,9.29
2022-12-25T08:49:31.428Z,9.30
2022-12-25T08:51:03.406Z,9.33
2022-12-25T08:52:35.293Z,9.40
2022-12-25T08:54:07.198Z,9.49
2022-12-25T08:55:39.085Z,9.45
2022-12-25T08:57:11.537Z,9.32
2022-12-25T08:58:44.189Z,9.21
2022-12-25T09:00:16.993Z,9.17
2022-12-25T09:01:48.941Z,8.99
2022-12-25T09:03:20.781Z,8.87
2022-12-25T09:04:52.895Z,8.69
2022-12-25T09:06:24.713Z,8.59
2022-12-25T09:07:56.519Z,8.59
2022-12-25T09:09:28.741Z,8.66
2022-12-25T09:11:04.254Z,8.79
2022-12-25T09:12:36.371Z,8.96
2022-12-25T09:14:09.876Z,9.13
2022-12-25T09:15:42.278Z,9.17
2022-12-25T09:17:15.726Z,9.31
2022-12-25T09:18:47.465Z,9.42
2022-12-25T09:20:19.700Z,9.54
2022-12-25T09:21:52.396Z,9.68
2022-12-25T09:23:24.094Z,9.78
2022-12-25T09:24:56.780Z,9.85
2022-12-25T09:26:29.017Z,9.88
2022-12-25T09:28:00.910Z,9.85
2022-12-25T09:29:33.003Z,9.81
2022-12-25T09:31:04.945Z,9.81
2022-12-25T09:32:40.523Z,9.86
2022-12-25T09:34:17.262Z,9.75
2022-12-25T09:36:01.257Z,9.49
2022-12-25T09:37:33.175Z,9.51
2022-12-25T09:39:04.860Z,9.62
2022-12-25T09:40:37.625Z,9.66
2022-12-25T09:42:15.583Z,9.67
2022-12-25T09:43:53.801Z,9.50
2022-12-25T09:45:30.639Z,9.47
2022-12-25T09:47:06.304Z,9.43
2022-12-25T09:48:38.259Z,9.46
2022-12-25T09:50:15.690Z,9.53
2022-12-25T09:51:48.601Z,9.59
2022-12-25T09:53:23.759Z,9.62
2022-12-25T09:55:45.162Z,9.68
2022-12-25T09:57:10.547Z,9.88
2022-12-25T09:58:42.909Z,10.03
2022-12-25T10:00:15.679Z,10.17
2022-12-25T10:01:53.259Z,10.31
2022-12-25T10:03:29.297Z,10.39
2022-12-25T10:05:19.555Z,10.49
2022-12-25T10:06:57.908Z,10.66
2022-12-25T10:08:41.897Z,10.74
2022-12-25T10:10:29.949Z,10.85
2022-12-25T10:12:04.070Z,11.04
2022-12-25T10:13:48.114Z,11.18
2022-12-25T10:15:25.944Z,11.36
2022-12-25T10:17:12.898Z,11.56
2022-12-25T10:18:53.172Z,11.83
2022-12-25T10:20:24.987Z,11.86
2022-12-25T10:21:58.538Z,11.74
2022-12-25T10:23:30.285Z,11.75
2022-12-25T10:25:02.819Z,11.85
2022-12-25T10:26:37.345Z,12.03
2022-12-25T10:28:15.860Z,12.23
2022-12-25T10:29:48.184Z,12.44
2022-12-25T10:31:21.631Z,12.65
2022-12-25T10:32:54.809Z,12.80
2022-12-25T10:34:28.287Z,12.87
2022-12-25T10:36:00.458Z,12.79
2022-12-25T10:37:32.136Z,12.67
2022-12-25T10:39:03.901Z,12.67
2022-12-25T10:40:53.922Z,12.62
2022-12-25T10:42:31.499Z,12.69
2022-12-25T10:44:15.084Z,12.80
2022-12-25T10:45:47.099Z,12.95
2022-12-25T10:47:22.683Z,13.12
2022-12-25T10:48:57.974Z,13.31
2022-12-25T10:50:29.820Z,13.42
2022-12-25T10:52:02.881Z,13.44
2022-12-25T10:53:41.764Z,13.36
2022-12-25T10:55:13.606Z,13.18
2022-12-25T10:56:55.806Z,13.14
2022-12-25T10:58:27.910Z,13.22
2022-12-25T11:00:01.027Z,13.28
2022-12-25T11:01:32.936Z,13.40
2022-12-25T11:03:05.310Z,13.53
2022-12-25T11:04:38.374Z,13.69
2022-12-25T11:06:23.023Z,13.79
2022-12-25T11:07:55.647Z,13.88
2022-12-25T11:09:27.390Z,14.00
2022-12-25T11:11:06.660Z,14.06
2022-12-25T11:12:38.617Z,14.09
2022-12-25T11:14:12.519Z,14.20
2022-12-25T11:15:45.022Z,14.28
2022-12-25T11:17:19.139Z,14.42
2022-12-25T11:18:51.989Z,14.60
2022-12-25T11:20:24.187Z,14.74
2022-12-25T11:21:57.537Z,14.87
2022-12-25T11:23:34.416Z,15.05
2022-12-25T11:25:15.650Z,15.25
2022-12-25T11:27:05.638Z,15.36
2022-12-25T11:28:37.800Z,15.41
2022-12-25T11:30:16.101Z,15.52
2022-12-25T11:31:51.183Z,15.66
2022-12-25T11:33:30.586Z,15.74
2022-12-25T11:35:02.688Z,15.77
2022-12-25T11:36:54.479Z,15.84
2022-12-25T11:38:29.576Z,15.92
2022-12-25T11:40:01.495Z,15.84
2022-12-25T11:41:33.563Z,15.77
2022-12-25T11:43:08.556Z,15.81
2022-12-25T11:44:58.653Z,15.89
2022-12-25T11:46:37.238Z,15.96
2022-12-25T11:48:16.624Z,15.97
2022-12-25T11:49:58.628Z,15.94
2022-12-25T11:51:57.635Z,15.89
2022-12-25T11:53:35.331Z,15.79
2022-12-25T11:55:27.558Z,15.79
2022-12-25T11:57:00.740Z,15.92
2022-12-25T11:58:39.015Z,16.09
2022-12-25T12:00:13.867Z,16.23
2022-12-25T12:01:51.113Z,16.30
2022-12-25T12:03:23.161Z,16.37
2022-12-25T12:05:03.704Z,16.39
2022-12-25T12:06:35.761Z,16.47
2022-12-25T12:08:12.303Z,16.61
2022-12-25T12:09:49.784Z,16.74
2022-12-25T12:11:25.651Z,16.73
2022-12-25T12:12:59.091Z,16.72
2022-12-25T12:14:34.473Z,16.65
2022-12-25T12:16:11.054Z,16.63
2022-12-25T12:17:42.918Z,16.64
2022-12-25T12:19:35.143Z,16.58
2022-12-25T12:21:13.619Z,16.54
2022-12-25T12:22:57.652Z,16.57
2022-12-25T12:24:40.260Z,16.65
2022-12-25T12:26:18.372Z,16.70
2022-12-25T12:28:04.514Z,16.74
2022-12-25T12:29:48.509Z,16.80
2022-12-25T12:31:22.263Z,16.92
2022-12-25T12:32:55.298Z,17.03
2022-12-25T12:34:30.310Z,17.14
2022-12-25T12:36:02.869Z,17.17
2022-12-25T12:37:35.774Z,17.27
2022-12-25T12:39:10.448Z,17.42
2022-12-25T12:40:43.473Z,17.53
2022-12-25T12:42:19.935Z,17.67
2022-12-25T12:44:00.198Z,17.71
2022-12-25T12:45:38.203Z,17.63
2022-12-25T12:47:30.817Z,17.61
2022-12-25T12:49:09.545Z,17.59
2022-12-25T12:50:42.136Z,17.52
2022-12-25T12:52:14.183Z,17.46
2022-12-25T12:53:51.625Z,17.44
2022-12-25T12:55:33.469Z,17.42
2022-12-25T12:57:25.092Z,17.51
2022-12-25T12:59:09.210Z,17.63
2022-12-25T13:00:42.506Z,17.67
2022-12-25T13:02:32.563Z,17.65
2022-12-25T13:04:42.791Z,17.50
2022-12-25T13:06:32.953Z,17.43
2022-12-25T13:08:10.582Z,17.35
2022-12-25T13:10:01.299Z,17.33
2022-12-25T13:11:39.050Z,17.30
2022-12-25T13:13:32.692Z,17.41
2022-12-25T13:15:04.558Z,17.59
2022-12-25T13:16:39.839Z,17.74
2022-12-25T13:18:24.596Z,17.84
2022-12-25T13:19:58.773Z,18.02
2022-12-25T13:21:30.759Z,18.14
2022-12-25T13:23:12.587Z,18.28
2022-12-25T13:24:44.759Z,18.36
2022-12-25T13:26:34.033Z,18.47
2022-12-25T13:28:07.758Z,18.60
2022-12-25T13:29:44.403Z,18.64
2022-12-25T13:31:22.169Z,18.73
2022-12-25T13:32:54.144Z,18.78
2022-12-25T13:34:33.743Z,18.85
2022-12-25T13:36:14.941Z,18.92
2022-12-25T13:37:55.396Z,18.96
2022-12-25T13:39:51.216Z,19.02
2022-12-25T13:44:41.309Z,18.91
2022-12-25T13:46:17.208Z,18.93
2022-12-25T13:47:55.215Z,18.89
2022-12-25T13:49:30.964Z,18.90
2022-12-25T13:51:02.890Z,18.87
2022-12-25T13:52:44.913Z,18.87
2022-12-25T13:54:17.267Z,18.88
2022-12-25T13:57:39.411Z,18.81
2022-12-25T13:59:20.719Z,18.80
2022-12-25T14:01:07.497Z,18.76
2022-12-25T14:02:39.385Z,18.68
2022-12-25T14:04:21.275Z,18.65
2022-12-25T14:06:45.622Z,18.63
2022-12-25T14:07:54.351Z,18.57
2022-12-25T14:09:28.879Z,18.54
2022-12-25T14:11:05.003Z,18.46
2022-12-25T14:12:39.783Z,18.39
2022-12-25T14:14:16.568Z,18.31
2022-12-25T14:16:03.752Z,18.26
2022-12-25T14:17:44.918Z,18.18
2022-12-25T14:19:43.524Z,18.09
2022-12-25T14:23:50.434Z,17.88
2022-12-25T14:25:23.779Z,17.78
2022-12-25T14:27:18.545Z,17.69
2022-12-25T14:29:50.189Z,17.54
2022-12-25T14:31:56.886Z,17.37
2022-12-25T14:33:28.592Z,17.20
2022-12-25T14:35:09.484Z,17.08
2022-12-25T14:36:48.816Z,17.01
2022-12-25T14:38:25.287Z,16.88
2022-12-25T14:39:58.066Z,16.78
2022-12-25T14:41:42.077Z,16.66
2022-12-25T14:43:23.068Z,16.51
2022-12-25T14:44:58.987Z,16.37
2022-12-25T14:46:34.853Z,16.22
2022-12-25T14:48:25.272Z,16.07
2022-12-25T14:50:03.105Z,15.89
2022-12-25T14:51:47.330Z,15.72
2022-12-25T14:53:23.433Z,15.57
2022-12-25T14:55:05.311Z,15.45
2022-12-25T14:56:40.555Z,15.34
2022-12-25T14:58:17.644Z,15.17
2022-12-25T14:59:55.144Z,15.05
2022-12-25T15:01:34.527Z,14.92
2022-12-25T15:03:07.401Z,14.71
2022-12-25T15:04:39.153Z,14.53
2022-12-25T15:06:29.592Z,14.39
2022-12-25T15:08:11.290Z,14.19
2022-12-25T15:09:48.123Z,14.10
2022-12-25T15:11:20.101Z,14.01
2022-12-25T15:12:51.833Z,13.89
2022-12-25T15:14:30.421Z,13.85
2022-12-25T15:16:15.279Z,13.81
2022-12-25T15:17:47.082Z,13.80
2022-12-25T15:19:29.237Z,13.73
2022-12-25T15:21:03.667Z,13.70
2022-12-25T15:23:09.995Z,13.67
2022-12-25T15:24:35.804Z,13.64
2022-12-25T15:26:09.205Z,13.61
2022-12-25T15:27:44.280Z,13.54
2022-12-25T15:29:16.018Z,13.45
2022-12-25T15:30:55.410Z,13.43
2022-12-25T15:32:29.907Z,13.32
2022-12-25T15:34:07.842Z,13.26
2022-12-25T15:35:41.541Z,13.25
2022-12-25T15:37:13.881Z,13.18
2022-12-25T15:38:45.794Z,13.12
2022-12-25T15:40:17.689Z,12.98
2022-12-25T15:42:09.997Z,12.87
2022-12-25T15:43:41.808Z,12.71
2022-12-25T15:45:20.191Z,12.67
2022-12-25T15:46:52.477Z,12.56
2022-12-25T15:48:24.412Z,12.52
2022-12-25T15:49:56.096Z,12.46
2022-12-25T15:51:27.997Z,12.37
2022-12-25T15:53:00.184Z,12.30
2022-12-25T15:54:32.431Z,12.22
2022-12-25T15:56:04.346Z,12.15
2022-12-25T15:57:36.298Z,12.09
2022-12-25T15:59:09.810Z,12.04
2022-12-25T16:00:41.317Z,11.99
2022-12-25T16:02:17.184Z,11.95
2022-12-25T16:03:49.848Z,11.91
2022-12-25T16:05:22.391Z,11.86
2022-12-25T16:06:54.985Z,11.80
2022-12-25T16:08:26.635Z,11.76
2022-12-25T16:09:58.193Z,11.72
2022-12-25T16:11:29.997Z,11.65
2022-12-25T16:13:01.891Z,11.59
2022-12-25T16:14:33.570Z,11.52
2022-12-25T16:16:07.247Z,11.47
2022-12-25T16:17:39.146Z,11.42
2022-12-25T16:19:11.456Z,11.39
2022-12-25T16:20:43.647Z,11.36
2022-12-25T16:22:19.207Z,11.33
2022-12-25T16:23:50.762Z,11.28
2022-12-25T16:25:22.696Z,11.24
2022-12-25T16:26:54.513Z,11.19
2022-12-25T16:28:26.225Z,11.13
2022-12-25T16:29:57.835Z,11.09
2022-12-25T16:31:29.783Z,11.05
2022-12-25T16:33:01.533Z,10.99
2022-12-25T16:34:33.523Z,10.89
2022-12-25T16:36:06.114Z,10.83
2022-12-25T16:37:39.254Z,10.73
2022-12-25T16:39:11.047Z,10.66
2022-12-25T16:40:43.224Z,10.58
2022-12-25T16:42:15.043Z,10.48
2022-12-25T16:43:47.068Z,10.42
2022-12-25T16:45:18.686Z,10.43
2022-12-25T16:46:50.714Z,10.49
2022-12-25T16:48:22.412Z,10.53
2022-12-25T16:49:54.546Z,10.54
2022-12-25T16:51:26.386Z,10.60
2022-12-25T16:52:58.012Z,10.64
2022-12-25T16:54:30.080Z,10.69
2022-12-25T16:56:15.675Z,10.73
2022-12-25T16:57:53.457Z,10.79
2022-12-25T16:59:25.525Z,10.83
2022-12-25T17:01:03.693Z,10.81
2022-12-25T17:02:38.265Z,10.68
2022-12-25T17:04:10.382Z,10.56
2022-12-25T17:05:42.227Z,10.51
2022-12-25T17:07:14.317Z,10.43
2022-12-25T17:08:46.686Z,10.37
2022-12-25T17:10:18.650Z,10.34
2022-12-25T17:11:50.833Z,10.30
2022-12-25T17:13:22.472Z,10.25
2022-12-25T17:14:57.985Z,10.25
2022-12-25T17:16:30.513Z,10.22
2022-12-25T17:18:02.574Z,10.18
2022-12-25T17:19:34.495Z,10.11
2022-12-25T17:21:06.597Z,10.08
2022-12-25T17:22:38.366Z,10.04
2022-12-25T17:24:10.181Z,10.03
2022-12-25T17:25:42.264Z,10.06
2022-12-25T17:27:13.913Z,10.06
2022-12-25T17:28:45.552Z,10.08
2022-12-25T17:30:18.303Z,10.05
2022-12-25T17:31:50.411Z,10.06
2022-12-25T17:33:22.535Z,10.09
2022-12-25T17:34:54.458Z,10.11
2022-12-25T17:36:26.233Z,10.09
2022-12-25T17:37:58.033Z,10.07
2022-12-25T17:39:30.347Z,10.05
2022-12-25T17:41:02.761Z,10.03
2022-12-25T17:42:34.675Z,9.99
2022-12-25T17:44:08.889Z,9.97
2022-12-25T17:45:43.163Z,9.96
2022-12-25T17:47:15.106Z,9.94
2022-12-25T17:48:47.268Z,9.92
2022-12-25T17:50:18.920Z,9.90
2022-12-25T17:51:50.690Z,9.91
2022-12-25T17:53:22.572Z,9.88
2022-12-25T17:54:56.313Z,9.86
2022-12-25T17:56:28.170Z,9.87
2022-12-25T17:57:59.776Z,9.87
2022-12-25T17:59:31.369Z,9.88
2022-12-25T18:01:10.412Z,9.89
2022-12-25T18:02:47.730Z,9.90
2022-12-25T18:04:19.765Z,9.91
2022-12-25T18:05:51.416Z,9.92
2022-12-25T18:07:23.377Z,9.94
2022-12-25T18:08:55.554Z,9.93
2022-12-25T18:10:27.291Z,9.91
2022-12-25T18:11:59.569Z,9.91
2022-12-25T18:13:31.187Z,9.92
2022-12-25T18:15:02.892Z,9.90
2022-12-25T18:16:35.388Z,9.91
2022-12-25T18:18:07.325Z,9.92
2022-12-25T18:19:39.159Z,9.92
2022-12-25T18:21:12.651Z,9.90
2022-12-25T18:22:44.274Z,9.85
2022-12-25T18:24:16.097Z,9.76
2022-12-25T18:25:48.325Z,9.68
2022-12-25T18:27:21.030Z,9.65
2022-12-25T18:28:52.703Z,9.59
2022-12-25T18:30:25.017Z,9.53
2022-12-25T18:31:56.892Z,9.48
2022-12-25T18:33:28.656Z,9.43
2022-12-25T18:35:00.501Z,9.38
2022-12-25T18:36:32.531Z,9.33
2022-12-25T18:39:56.460Z,9.19
2022-12-25T18:41:30.041Z,9.13
2022-12-25T18:43:03.684Z,9.12
2022-12-25T18:44:35.688Z,9.08
2022-12-25T18:46:16.071Z,9.05
2022-12-25T18:47:48.020Z,9.02
2022-12-25T18:49:23.247Z,8.95
2022-12-25T18:50:59.348Z,8.83
2022-12-25T18:52:49.174Z,8.71
2022-12-25T18:54:22.955Z,8.65
2022-12-25T18:55:56.076Z,8.65
2022-12-25T18:57:27.908Z,8.69
2022-12-25T18:59:01.148Z,8.72
2022-12-25T19:00:32.868Z,8.74
2022-12-25T19:02:04.713Z,8.76
2022-12-25T19:03:36.647Z,8.74
2022-12-25T19:05:08.800Z,8.70
2022-12-25T19:06:40.419Z,8.64
2022-12-25T19:08:12.180Z,8.60
2022-12-25T19:09:43.938Z,8.52
2022-12-25T19:11:16.018Z,8.43
2022-12-25T19:12:47.886Z,8.35
2022-12-25T19:14:22.748Z,8.26
2022-12-25T19:15:57.833Z,8.22
2022-12-25T19:17:31.944Z,8.18
2022-12-25T19:19:03.999Z,8.16
2022-12-25T19:20:41.461Z,8.18
2022-12-25T19:22:14.883Z,8.21
2022-12-25T19:23:47.036Z,8.24
2022-12-25T19:25:19.234Z,8.27
2022-12-25T19:26:50.985Z,8.33
2022-12-25T19:28:25.339Z,8.38
2022-12-25T19:29:57.017Z,8.49
2022-12-25T19:31:28.788Z,8.56
2022-12-25T19:33:00.628Z,8.57
2022-12-25T19:34:32.497Z,8.58
2022-12-25T19:36:05.263Z,8.56
2022-12-25T19:37:37.003Z,8.52
2022-12-25T19:39:09.207Z,8.50
2022-12-25T19:40:41.254Z,8.46
2022-12-25T19:42:14.085Z,8.44
2022-12-25T19:43:47.869Z,8.46
2022-12-25T19:45:21.379Z,8.47
2022-12-25T19:46:53.875Z,8.47
2022-12-25T19:48:25.863Z,8.45
2022-12-25T19:50:02.633Z,8.46
2022-12-25T19:51:40.165Z,8.47
2022-12-25T19:53:12.203Z,8.49
2022-12-25T19:54:43.994Z,8.48
2022-12-25T19:56:21.013Z,8.44
2022-12-25T19:57:53.082Z,8.40
2022-12-25T19:59:25.047Z,8.38
2022-12-25T20:00:59.975Z,8.38
2022-12-25T20:02:31.997Z,8.37
2022-12-25T20:04:07.060Z,8.35
2022-12-25T20:05:38.833Z,8.31
2022-12-25T20:07:10.379Z,8.26
2022-12-25T20:08:42.081Z,8.17
2022-12-25T20:10:13.726Z,8.09
2022-12-25T20:11:45.488Z,8.00
2022-12-25T20:13:17.513Z,7.92
2022-12-25T20:14:49.649Z,7.86
2022-12-25T20:16:21.485Z,7.82
2022-12-25T20:17:54.745Z,7.79
2022-12-25T20:19:26.655Z,7.81
2022-12-25T20:21:05.059Z,7.78
2022-12-25T20:22:36.720Z,7.77
2022-12-25T20:24:10.646Z,7.76
2022-12-25T20:25:42.460Z,7.74
2022-12-25T20:27:14.172Z,7.73
2022-12-25T20:28:45.981Z,7.72
2022-12-25T20:30:17.807Z,7.74
2022-12-25T20:31:49.514Z,7.75
2022-12-25T20:33:22.146Z,7.75
2022-12-25T20:34:54.314Z,7.78
2022-12-25T20:36:28.532Z,7.80
2022-12-25T20:38:04.571Z,7.78
2022-12-25T20:39:36.410Z,7.77
2022-12-25T20:43:00.877Z,7.80
2022-12-25T20:44:34.311Z,7.78
2022-12-25T20:46:06.104Z,7.83
2022-12-25T20:47:38.442Z,7.85
2022-12-25T20:49:11.100Z,7.81
2022-12-25T20:50:42.789Z,7.77
2022-12-25T20:52:14.872Z,7.78
2022-12-25T20:53:47.348Z,7.78
2022-12-25T20:55:19.020Z,7.75
2022-12-25T20:56:51.061Z,7.72
2022-12-25T20:58:23.189Z,7.69
2022-12-25T20:59:55.247Z,7.64
2022-12-25T21:01:27.569Z,7.63
2022-12-25T21:02:59.636Z,7.60
2022-12-25T21:04:31.920Z,7.63
2022-12-25T21:06:03.815Z,7.67
2022-12-25T21:07:35.869Z,7.65
2022-12-25T21:09:07.796Z,7.60
2022-12-25T21:10:39.868Z,7.54
2022-12-25T21:12:11.613Z,7.46